Time;durP1;ratioP1;P1;durP2;ratioP2;P2;SDS_P1;SDS_P2;PMS_P1;PMS_P2;Temp;Humidity;BMP_temperature;BMP_pressure;BME280_temperature;BME280_humidity;BME280_pressure;Samples;Min_cycle;Max_cycle;Signal;HPM_P1;HPM_P2
2022/11/23 00:00:44;;;;;;;14.13;13.03;;;;;;;21.59;40.50;93774.94;6221823;27;103737;-63
2022/11/23 00:03:50;;;;;;;13.77;12.67;;;;;;;21.58;41.04;93778.72;6231596;27;103994;-63
2022/11/23 00:06:54;;;;;;;14.10;12.90;;;;;;;21.58;40.72;93767.28;6231031;28;103900;-63
2022/11/23 00:09:57;;;;;;;13.10;12.10;;;;;;;21.59;40.38;93764.28;6230566;28;104266;-63
2022/11/23 00:13:00;;;;;;;12.83;11.73;;;;;;;21.60;40.86;93773.84;6220610;27;103736;-65
2022/11/23 00:16:05;;;;;;;12.93;11.90;;;;;;;21.58;40.68;93776.06;6230543;27;103774;-65
2022/11/23 00:19:09;;;;;;;12.67;11.67;;;;;;;21.59;40.78;93780.28;6232394;27;104245;-65
2022/11/23 00:22:14;;;;;;;12.83;11.73;;;;;;;21.59;40.41;93790.13;6231055;28;104938;-65
2022/11/23 00:25:17;;;;;;;12.27;11.27;;;;;;;21.58;40.63;93802.69;6219905;27;105354;-65
2022/11/23 00:28:20;;;;;;;12.93;11.83;;;;;;;21.58;40.81;93799.25;6230378;27;104360;-63
2022/11/23 00:31:24;;;;;;;11.93;10.93;;;;;;;21.58;40.67;93783.28;6229100;27;104611;-63
2022/11/23 00:34:27;;;;;;;11.60;10.67;;;;;;;21.57;40.69;93771.06;6223742;28;104877;-63
2022/11/23 00:37:31;;;;;;;11.90;11.00;;;;;;;21.57;40.16;93784.38;6225202;28;104868;-63
2022/11/23 00:40:35;;;;;;;11.30;10.40;;;;;;;21.57;40.74;93779.06;6230577;28;104620;-65
2022/11/23 00:43:38;;;;;;;11.63;10.73;;;;;;;21.55;40.80;93782.06;6231644;27;103890;-64
2022/11/23 00:46:41;;;;;;;11.60;10.50;;;;;;;21.56;40.40;93782.81;6221118;28;103935;-63
2022/11/23 00:49:44;;;;;;;10.90;10.10;;;;;;;21.56;40.58;93785.50;6230395;27;104861;-63
2022/11/23 00:52:49;;;;;;;10.60;9.80;;;;;;;21.56;40.21;93799.56;6229464;28;103476;-64
2022/11/23 00:55:52;;;;;;;11.43;10.43;;;;;;;21.57;40.20;93805.66;6225916;28;104879;-64
2022/11/23 00:58:58;;;;;;;9.83;9.13;;;;;;;21.55;41.09;93794.59;6220807;28;104852;-64
2022/11/23 01:02:01;;;;;;;9.50;8.70;;;;;;;21.56;40.29;93777.50;6231096;28;103570;-63
2022/11/23 01:05:04;;;;;;;9.70;8.90;;;;;;;21.56;40.67;93764.19;6230423;27;103943;-64
2022/11/23 01:08:09;;;;;;;9.33;8.63;;;;;;;21.56;40.70;93769.53;6230117;27;104978;-64
2022/11/23 01:11:12;;;;;;;9.47;8.73;;;;;;;21.57;40.58;93771.06;6214877;28;103670;-64
2022/11/23 01:14:16;;;;;;;10.00;9.20;;;;;;;21.55;40.30;93783.94;6231275;27;103664;-64
2022/11/23 01:17:19;;;;;;;9.80;9.00;;;;;;;21.54;40.89;93788.47;6231131;28;103845;-64
2022/11/23 01:20:22;;;;;;;9.00;8.30;;;;;;;21.56;40.34;93782.81;6220143;27;104199;-64
2022/11/23 01:23:28;;;;;;;9.33;8.53;;;;;;;21.54;40.49;93761.09;6228902;27;103985;-63
2022/11/23 01:26:33;;;;;;;9.30;8.60;;;;;;;21.54;40.39;93775.19;6229139;28;105022;-64
2022/11/23 01:29:36;;;;;;;9.07;8.37;;;;;;;21.54;40.72;93753.88;6230256;27;103713;-63
2022/11/23 01:32:39;;;;;;;9.17;8.37;;;;;;;21.54;40.88;93761.09;6217498;27;103471;-64
2022/11/23 01:35:42;;;;;;;9.23;8.53;;;;;;;21.54;40.64;93759.22;6229864;27;103854;-63
2022/11/23 01:38:48;;;;;;;8.33;7.63;;;;;;;21.51;40.39;93768.63;6229630;27;103926;-64
2022/11/23 01:41:51;;;;;;;10.20;9.27;;;;;;;21.53;40.39;93760.31;6230518;28;104630;-63
2022/11/23 01:45:33;;;;;;;9.20;8.50;;;;;;;21.52;40.62;93772.84;6221727;28;103834;-64
2022/11/23 01:48:40;;;;;;;9.07;8.40;;;;;;;21.55;40.58;93781.28;6221651;28;103756;-64
2022/11/23 01:51:46;;;;;;;8.97;8.30;;;;;;;21.55;40.41;93778.63;6230602;27;104161;-64
2022/11/23 01:54:55;;;;;;;9.00;8.30;;;;;;;21.55;40.45;93784.72;6220124;27;104827;-64
2022/11/23 01:57:58;;;;;;;8.50;7.80;;;;;;;21.55;40.23;93779.38;6230491;28;104203;-64
2022/11/23 02:01:02;;;;;;;8.40;7.70;;;;;;;21.55;40.73;93784.72;6219963;27;104504;-64
2022/11/23 02:04:09;;;;;;;8.73;8.03;;;;;;;21.56;40.78;93774.84;6234234;27;104009;-64
2022/11/23 02:07:13;;;;;;;8.83;8.03;;;;;;;21.55;40.62;93752.00;6223990;28;104756;-65
2022/11/23 02:10:18;;;;;;;8.73;8.00;;;;;;;21.54;40.66;93769.06;6233379;28;105931;-64
2022/11/23 02:13:22;;;;;;;8.60;7.90;;;;;;;21.57;40.21;93766.53;6235258;27;103939;-64
2022/11/23 02:16:25;;;;;;;8.80;8.10;;;;;;;21.55;40.18;93758.09;6230899;27;103851;-64
2022/11/23 02:19:39;;;;;;;8.10;7.40;;;;;;;21.56;40.37;93767.63;6226640;27;103713;-64
2022/11/23 02:22:54;;;;;;;8.37;7.67;;;;;;;21.54;40.22;93775.19;6233793;27;103669;-64
2022/11/23 02:26:08;;;;;;;8.27;7.67;;;;;;;21.54;40.48;93753.88;6234329;27;104549;-64
2022/11/23 02:29:15;;;;;;;8.40;7.70;;;;;;;21.54;40.68;93737.91;6222730;27;103723;-64
2022/11/23 02:32:21;;;;;;;8.67;7.97;;;;;;;21.55;40.63;93736.03;6229863;27;103868;-63
2022/11/23 02:35:24;;;;;;;7.40;6.90;;;;;;;21.52;40.75;93742.78;6234291;28;103605;-64
2022/11/23 02:38:31;;;;;;;8.73;8.03;;;;;;;21.54;40.22;93729.16;6234062;27;103776;-64
2022/11/23 02:41:38;;;;;;;7.00;6.40;;;;;;;21.55;40.61;93714.72;6223004;27;103587;-64
2022/11/23 02:44:49;;;;;;;8.20;7.50;;;;;;;21.54;40.49;93713.19;6234304;28;103736;-64
2022/11/23 02:47:52;;;;;;;8.00;7.40;;;;;;;21.55;40.29;93722.72;6234446;27;105260;-64
2022/11/23 02:50:55;;;;;;;8.60;7.90;;;;;;;21.54;40.35;93710.53;6232895;27;104695;-64
2022/11/23 02:53:58;;;;;;;7.60;7.00;;;;;;;21.54;40.43;93703.31;6225233;28;104738;-64
2022/11/23 02:57:03;;;;;;;8.03;7.33;;;;;;;21.54;40.51;93689.22;6234801;28;103733;-64
2022/11/23 03:00:07;;;;;;;8.10;7.50;;;;;;;21.56;40.37;93673.69;6233714;28;104403;-64
2022/11/23 03:03:10;;;;;;;7.93;7.33;;;;;;;21.55;40.80;93672.16;6225155;27;104047;-64
2022/11/23 03:06:13;;;;;;;7.90;7.30;;;;;;;21.54;40.17;93673.25;6232234;28;105797;-64
2022/11/23 03:09:16;;;;;;;8.50;7.80;;;;;;;21.54;40.62;93670.59;6233828;27;103696;-64
2022/11/23 03:12:21;;;;;;;8.47;7.77;;;;;;;21.54;40.57;93675.91;6232589;27;103705;-64
2022/11/23 03:15:24;;;;;;;7.60;7.00;;;;;;;21.52;40.85;93671.72;6220972;27;103752;-64
2022/11/23 03:18:27;;;;;;;7.90;7.30;;;;;;;21.51;40.32;93672.81;6233772;27;103709;-65
2022/11/23 03:21:30;;;;;;;8.40;7.70;;;;;;;21.51;40.42;93653.41;6231576;27;105018;-64
2022/11/23 03:24:34;;;;;;;8.33;7.73;;;;;;;21.54;40.26;93651.97;6233397;28;103865;-64
2022/11/23 03:27:39;;;;;;;7.77;7.17;;;;;;;21.51;40.58;93656.84;6221835;27;103857;-65
2022/11/23 03:30:43;;;;;;;8.50;7.80;;;;;;;21.52;40.68;93668.28;6230550;28;103965;-64
2022/11/23 03:33:46;;;;;;;8.80;8.10;;;;;;;21.50;40.69;93671.25;6230144;27;103878;-64
2022/11/23 03:36:49;;;;;;;9.07;8.27;;;;;;;21.51;40.60;93659.50;6226504;28;103749;-64
2022/11/23 03:39:52;;;;;;;8.10;7.50;;;;;;;21.50;40.88;93649.94;6224316;28;103903;-64
2022/11/23 03:42:57;;;;;;;8.20;7.40;;;;;;;21.51;40.70;93666.72;6231838;28;105127;-65
2022/11/23 03:46:00;;;;;;;7.93;7.13;;;;;;;21.50;40.31;93652.59;6230773;28;103528;-65
2022/11/23 03:49:03;;;;;;;7.90;7.30;;;;;;;21.50;40.25;93660.59;6216348;28;104847;-64
2022/11/23 03:52:06;;;;;;;7.50;6.90;;;;;;;21.50;40.86;93628.66;6215998;27;104002;-63
2022/11/23 03:55:09;;;;;;;7.83;7.13;;;;;;;21.49;40.67;93653.72;6227255;27;104423;-64
2022/11/23 03:58:14;;;;;;;6.70;6.20;;;;;;;21.51;40.49;93624.13;6224486;27;103841;-64
2022/11/23 04:01:17;;;;;;;8.00;7.30;;;;;;;21.51;40.26;93645.44;6219284;28;103914;-63
2022/11/23 04:04:20;;;;;;;7.63;7.03;;;;;;;21.51;40.77;93654.19;6229925;27;103616;-65
2022/11/23 04:07:24;;;;;;;7.63;6.93;;;;;;;21.51;40.50;93632.91;6217411;28;103841;-65
2022/11/23 04:10:27;;;;;;;7.00;6.40;;;;;;;21.55;40.48;93632.22;6230974;27;103900;-66
2022/11/23 04:13:32;;;;;;;6.83;6.33;;;;;;;21.55;40.53;93643.63;6219889;27;103750;-65
2022/11/23 04:16:35;;;;;;;6.77;6.30;;;;;;;21.56;40.83;93633.75;6230741;27;103867;-65
2022/11/23 04:19:38;;;;;;;7.70;6.97;;;;;;;21.57;40.93;93622.00;6233115;28;105169;-65
2022/11/23 04:22:41;;;;;;;8.23;7.53;;;;;;;21.55;41.20;93637.53;6219338;27;103663;-66
2022/11/23 04:25:45;;;;;;;7.33;6.73;;;;;;;21.58;41.18;93642.19;6222228;27;104881;-65
2022/11/23 04:28:49;;;;;;;7.47;6.87;;;;;;;21.61;40.49;93636.19;6230546;27;103835;-66
2022/11/23 04:31:52;;;;;;;8.03;6.83;;;;;;;21.59;40.59;93641.06;6229875;28;103655;-66
2022/11/23 04:34:56;;;;;;;6.50;6.00;;;;;;;21.58;40.54;93656.28;6216099;27;103950;-66
2022/11/23 04:37:59;;;;;;;6.67;5.97;;;;;;;21.59;40.50;93609.13;6228202;27;103560;-64
2022/11/23 04:41:02;;;;;;;7.50;6.00;;;;;;;21.55;40.65;93630.34;6230623;28;106243;-65
2022/11/23 04:44:06;;;;;;;6.67;6.17;;;;;;;21.55;41.20;93635.66;6230407;27;103815;-64
2022/11/23 04:47:10;;;;;;;6.70;6.07;;;;;;;21.55;41.36;93640.19;6220097;27;103843;-64
2022/11/23 04:50:13;;;;;;;7.10;6.50;;;;;;;21.57;41.29;93643.31;6231558;28;107189;-68
2022/11/23 04:53:16;;;;;;;6.50;5.90;;;;;;;21.56;41.13;93663.03;6226522;27;103715;-67
2022/11/23 04:56:19;;;;;;;8.10;6.60;;;;;;;21.61;42.00;93660.13;6230930;27;104202;-64
2022/11/23 04:59:24;;;;;;;7.10;6.40;;;;;;;21.71;41.91;93676.44;6220373;27;104075;-65
2022/11/23 05:02:27;;;;;;;11.27;6.13;;;;;;;21.78;42.70;93675.84;6226883;27;104420;-64
2022/11/23 05:05:30;;;;;;;7.20;6.50;;;;;;;21.80;43.17;93676.28;6221492;28;104202;-64
2022/11/23 05:08:33;;;;;;;7.87;7.03;;;;;;;21.85;43.30;93697.41;6217179;28;103829;-64
2022/11/23 05:11:36;;;;;;;10.70;6.83;;;;;;;21.91;42.78;93693.38;6224709;27;104917;-64
2022/11/23 05:14:41;;;;;;;9.67;6.60;;;;;;;21.95;43.32;93702.25;6227787;28;105146;-64
2022/11/23 05:17:45;;;;;;;8.10;6.90;;;;;;;21.98;42.94;93706.13;6229407;28;103780;-64
2022/11/23 05:20:48;;;;;;;6.43;5.87;;;;;;;21.97;43.12;93673.38;6214413;27;103718;-64
2022/11/23 05:23:51;;;;;;;7.97;7.27;;;;;;;21.86;42.94;93688.31;6229189;27;103203;-65
2022/11/23 05:26:54;;;;;;;6.63;6.00;;;;;;;21.80;42.60;93678.94;6216710;28;103881;-65
2022/11/23 05:29:59;;;;;;;7.47;6.23;;;;;;;21.78;42.72;93683.84;6202827;28;104736;-65
2022/11/23 05:33:03;;;;;;;8.77;6.70;;;;;;;21.75;42.72;93676.53;6193960;28;103979;-65
2022/11/23 05:36:07;;;;;;;7.00;6.30;;;;;;;21.71;42.96;93684.44;6206471;28;104810;-65
2022/11/23 05:39:10;;;;;;;7.20;6.50;;;;;;;21.68;42.56;93653.16;6208026;28;103712;-65
2022/11/23 05:42:13;;;;;;;6.97;6.30;;;;;;;21.71;42.33;93691.63;6210913;28;103857;-65
2022/11/23 05:45:18;;;;;;;7.50;6.00;;;;;;;21.68;42.61;93671.78;6199571;28;104791;-65
2022/11/23 05:48:21;;;;;;;7.27;6.60;;;;;;;21.67;42.58;93670.22;6211073;28;104627;-65
2022/11/23 05:51:24;;;;;;;6.67;6.17;;;;;;;21.68;42.30;93668.34;6210122;28;103860;-65
2022/11/23 05:54:27;;;;;;;5.80;5.30;;;;;;;21.67;42.46;93664.13;6201949;28;104060;-65
2022/11/23 05:57:29;;;;;;;6.73;6.07;;;;;;;21.68;42.27;93671.00;6209437;28;103725;-65
2022/11/23 06:00:34;;;;;;;7.00;6.47;;;;;;;21.68;42.27;93676.34;6211116;28;105472;-65
2022/11/23 06:03:37;;;;;;;6.20;5.70;;;;;;;21.68;41.92;93692.31;6210385;28;104064;-66
2022/11/23 06:06:40;;;;;;;5.97;5.33;;;;;;;21.68;41.97;93687.00;6198278;28;104704;-65
2022/11/23 06:09:43;;;;;;;6.07;5.57;;;;;;;21.68;42.23;93685.09;6210646;28;104142;-65
2022/11/23 06:12:46;;;;;;;6.40;5.80;;;;;;;21.69;42.14;93654.69;6210290;28;104573;-65
2022/11/23 06:15:51;;;;;;;6.30;5.10;;;;;;;21.71;41.96;93665.78;6210236;28;103395;-65
2022/11/23 06:18:54;;;;;;;6.07;5.27;;;;;;;21.73;41.48;93673.44;6200619;28;103844;-65
2022/11/23 06:21:57;;;;;;;7.33;5.50;;;;;;;21.74;41.66;93691.72;6209799;28;103729;-63
2022/11/23 06:25:01;;;;;;;6.33;5.73;;;;;;;21.73;41.84;93700.84;6209769;28;103407;-65
2022/11/23 06:28:04;;;;;;;5.97;5.50;;;;;;;21.71;41.43;93700.41;6204825;28;103873;-64
2022/11/23 06:31:10;;;;;;;5.80;5.20;;;;;;;21.71;41.39;93708.38;6204557;28;103701;-65
2022/11/23 06:34:13;;;;;;;6.87;6.27;;;;;;;21.74;42.09;93697.06;6210373;28;103848;-66
2022/11/23 06:37:16;;;;;;;13.80;12.50;;;;;;;21.73;41.83;93692.84;6209348;28;103876;-65
2022/11/23 06:40:19;;;;;;;11.43;10.43;;;;;;;21.71;41.97;93696.97;6199037;28;103652;-65
2022/11/23 06:43:22;;;;;;;14.03;12.93;;;;;;;21.71;42.11;93696.97;6210570;28;106586;-65
2022/11/23 06:46:27;;;;;;;15.10;13.83;;;;;;;22.05;41.50;93696.47;6210368;28;104114;-64
2022/11/23 06:49:30;;;;;;;14.20;12.70;;;;;;;22.26;40.77;93698.16;6210348;28;104901;-65
2022/11/23 06:52:33;;;;;;;17.53;15.93;;;;;;;22.10;40.95;93692.78;6199891;28;103922;-66
2022/11/23 06:55:36;;;;;;;18.83;17.33;;;;;;;21.98;41.32;93714.88;6210031;28;103990;-67
2022/11/23 06:58:40;;;;;;;14.83;13.63;;;;;;;21.93;41.34;93707.16;6209807;28;105476;-65
2022/11/23 07:01:44;;;;;;;23.60;21.63;;;;;;;21.88;41.14;93702.06;6207528;28;104788;-65
2022/11/23 07:04:47;;;;;;;23.60;21.67;;;;;;;21.85;41.49;93702.75;6203276;28;103917;-64
2022/11/23 07:07:51;;;;;;;28.40;25.87;;;;;;;21.90;41.75;93696.41;6209094;28;103921;-63
2022/11/23 07:10:54;;;;;;;26.93;24.63;;;;;;;21.92;41.44;93694.16;6209685;28;103641;-63
2022/11/23 07:13:57;;;;;;;30.87;28.17;;;;;;;21.90;41.54;93705.16;6198870;28;103893;-63
2022/11/23 07:17:01;;;;;;;25.73;23.60;;;;;;;21.88;41.39;93711.94;6209046;28;103918;-63
2022/11/23 07:20:05;;;;;;;28.20;25.70;;;;;;;22.03;41.34;93709.34;6209361;28;104360;-63
2022/11/23 07:23:11;;;;;;;28.13;25.83;;;;;;;22.09;40.75;93686.69;6209402;28;104870;-63
2022/11/23 07:26:14;;;;;;;28.47;25.90;;;;;;;22.02;41.35;93705.13;6199250;28;104399;-65
2022/11/23 07:29:17;;;;;;;27.00;24.80;;;;;;;22.06;40.87;93690.03;6209449;28;104893;-64
2022/11/23 07:32:21;;;;;;;28.10;25.63;;;;;;;22.03;40.99;93714.69;6210092;28;103981;-64
2022/11/23 07:35:24;;;;;;;29.93;27.37;;;;;;;22.00;41.19;93703.91;6214923;28;103871;-64
2022/11/23 07:38:27;;;;;;;28.23;25.73;;;;;;;22.00;41.68;93699.34;6222775;27;104846;-64
2022/11/23 07:41:31;;;;;;;28.33;25.87;;;;;;;22.02;42.26;93707.03;6233789;27;104215;-64
2022/11/23 07:44:34;;;;;;;26.87;24.57;;;;;;;22.02;42.10;93715.00;6234268;27;103478;-64
2022/11/23 07:47:38;;;;;;;27.43;24.87;;;;;;;22.03;42.32;93704.03;6228862;28;104278;-64
2022/11/23 07:50:42;;;;;;;26.33;24.13;;;;;;;22.05;42.52;93707.13;6228493;27;104896;-64
2022/11/23 07:53:45;;;;;;;25.70;23.27;;;;;;;22.06;42.41;93721.22;6234540;28;103803;-64
2022/11/23 07:56:48;;;;;;;25.30;23.20;;;;;;;22.09;41.76;93704.53;6232344;27;103792;-64
2022/11/23 07:59:51;;;;;;;25.07;22.93;;;;;;;22.06;41.85;93702.56;6223153;27;103940;-64
2022/11/23 08:02:57;;;;;;;25.73;23.50;;;;;;;22.02;42.38;93709.69;6233676;27;104216;-63
2022/11/23 08:06:20;;;;;;;24.90;22.70;;;;;;;21.96;42.05;93709.13;6233579;28;103061;-63
2022/11/23 08:09:23;;;;;;;23.90;21.87;;;;;;;21.94;42.34;93708.69;6233123;27;104314;-63
2022/11/23 08:12:26;;;;;;;23.43;21.37;;;;;;;22.02;41.80;93717.69;6222544;27;103826;-63
2022/11/23 08:15:29;;;;;;;23.60;21.70;;;;;;;22.14;41.61;93698.19;6233130;27;103722;-63
2022/11/23 08:18:34;;;;;;;23.70;21.80;;;;;;;22.22;41.69;93692.75;6232690;27;103401;-63
2022/11/23 08:21:38;;;;;;;22.77;20.80;;;;;;;22.28;42.03;93698.59;6228546;28;104249;-63
2022/11/23 08:24:41;;;;;;;24.10;22.10;;;;;;;22.29;41.94;93705.47;6228433;28;104868;-65
2022/11/23 08:27:44;;;;;;;23.83;21.73;;;;;;;22.36;42.12;93703.78;6232147;28;104912;-65
2022/11/23 08:30:47;;;;;;;23.17;21.17;;;;;;;22.37;42.02;93681.34;6233355;27;103962;-64
2022/11/23 08:33:51;;;;;;;23.20;21.20;;;;;;;22.35;41.74;93686.25;6221129;28;104360;-64
2022/11/23 08:36:54;;;;;;;21.60;19.90;;;;;;;22.36;42.08;93695.78;6233144;27;103532;-64
2022/11/23 08:39:57;;;;;;;21.93;20.07;;;;;;;22.35;42.05;93696.13;6232399;27;104057;-64
2022/11/23 08:43:00;;;;;;;20.00;18.30;;;;;;;22.28;41.89;93698.59;6232368;27;103736;-64
2022/11/23 08:46:04;;;;;;;20.43;18.73;;;;;;;22.31;41.34;93700.56;6223176;27;105262;-64
2022/11/23 08:49:14;;;;;;;22.07;20.27;;;;;;;22.28;41.27;93688.72;6232757;27;103661;-63
2022/11/23 08:52:17;;;;;;;21.80;20.00;;;;;;;22.29;41.75;93700.13;6232870;28;104918;-64
2022/11/23 08:55:20;;;;;;;21.93;20.00;;;;;;;22.26;41.46;93703.50;6227733;28;104084;-63
2022/11/23 08:58:23;;;;;;;20.57;18.87;;;;;;;22.28;41.79;93701.25;6227847;28;104269;-63
2022/11/23 09:01:26;;;;;;;20.60;18.90;;;;;;;22.30;41.29;93697.13;6233725;27;103941;-63
2022/11/23 09:04:31;;;;;;;20.43;18.67;;;;;;;22.31;41.55;93703.25;6232343;27;103675;-64
2022/11/23 09:07:34;;;;;;;19.20;17.70;;;;;;;22.32;41.26;93708.22;6221595;28;104718;-64
2022/11/23 09:10:38;;;;;;;20.30;18.60;;;;;;;22.26;41.52;93684.84;6230759;27;103650;-64
2022/11/23 09:13:42;;;;;;;19.80;18.10;;;;;;;22.27;41.24;93679.16;6232629;28;104728;-64
2022/11/23 09:16:45;;;;;;;20.90;18.90;;;;;;;22.32;41.17;93691.47;6233170;28;104915;-64
2022/11/23 09:19:50;;;;;;;20.07;18.47;;;;;;;22.33;41.58;93695.69;6221889;28;106024;-64
2022/11/23 09:22:55;;;;;;;19.77;18.17;;;;;;;22.35;41.07;93686.25;6231459;28;104136;-64
2022/11/23 09:25:58;;;;;;;19.03;17.23;;;;;;;22.39;41.26;93671.13;6231502;28;103852;-64
2022/11/23 09:29:01;;;;;;;18.43;17.03;;;;;;;22.44;41.89;93672.75;6232346;28;104897;-64
2022/11/23 09:32:05;;;;;;;17.13;15.70;;;;;;;22.48;41.22;93673.63;6221617;27;104844;-64
2022/11/23 09:35:10;;;;;;;18.43;16.83;;;;;;;22.54;41.44;93661.59;6231877;28;103486;-64
2022/11/23 09:38:13;;;;;;;18.33;16.83;;;;;;;22.48;41.88;93662.97;6231792;27;103728;-65
2022/11/23 09:41:31;;;;;;;18.50;16.80;;;;;;;22.53;41.83;93676.06;6223437;28;104336;-65
2022/11/23 09:44:51;;;;;;;18.37;16.80;;;;;;;22.59;41.12;93672.03;6231559;28;103752;-65
2022/11/23 09:48:15;;;;;;;17.30;16.00;;;;;;;22.60;41.74;93670.16;6231499;27;103686;-65
2022/11/23 09:51:21;;;;;;;17.97;16.47;;;;;;;22.65;41.11;93675.22;6231406;27;103682;-65
2022/11/23 09:54:28;;;;;;;17.20;15.80;;;;;;;22.65;41.23;93665.34;6220638;28;104007;-65
2022/11/23 09:57:36;;;;;;;16.57;15.27;;;;;;;22.71;41.41;93665.88;6231566;28;105124;-65
2022/11/23 10:00:45;;;;;;;17.90;16.40;;;;;;;22.70;41.31;93656.31;6231263;27;103876;-65
2022/11/23 10:03:49;;;;;;;17.00;15.60;;;;;;;22.73;41.54;93646.84;6226069;27;103866;-65
2022/11/23 10:06:59;;;;;;;16.73;15.37;;;;;;;22.76;41.02;93649.59;6226349;28;105327;-65
2022/11/23 10:10:13;;;;;;;16.43;15.23;;;;;;;22.79;41.06;93645.47;6231041;28;104740;-65
2022/11/23 10:13:34;;;;;;;15.60;14.40;;;;;;;22.79;41.15;93648.16;6230385;27;103764;-65
2022/11/23 10:16:45;;;;;;;15.60;14.30;;;;;;;22.83;41.09;93646.31;6219847;28;103543;-65
2022/11/23 10:20:03;;;;;;;15.50;14.20;;;;;;;22.83;41.34;93662.34;6231488;27;104893;-65
2022/11/23 10:23:17;;;;;;;16.57;15.07;;;;;;;22.81;41.32;93668.00;6234745;28;103365;-65
2022/11/23 10:26:27;;;;;;;15.60;14.23;;;;;;;22.74;41.36;93656.41;6230206;27;103731;-65
2022/11/23 10:29:32;;;;;;;15.40;14.00;;;;;;;22.66;41.60;93650.09;6232803;27;104775;-64
2022/11/23 10:32:41;;;;;;;15.23;13.93;;;;;;;22.64;41.63;93650.44;6235023;28;103980;-65
2022/11/23 10:35:44;;;;;;;16.60;15.20;;;;;;;22.58;41.61;93648.41;6235838;28;106328;-65
2022/11/23 10:38:51;;;;;;;14.83;13.63;;;;;;;22.51;41.71;93648.94;6224344;27;103890;-65
2022/11/23 10:41:58;;;;;;;14.30;13.10;;;;;;;22.42;41.52;93654.44;6234280;27;103452;-65
2022/11/23 10:45:03;;;;;;;14.83;13.53;;;;;;;22.38;41.58;93650.16;6234385;27;103844;-65
2022/11/23 10:48:06;;;;;;;15.03;13.73;;;;;;;22.31;42.24;93641.94;6234212;27;103942;-65
2022/11/23 10:51:21;;;;;;;14.57;13.37;;;;;;;22.26;42.16;93658.19;6224058;27;103913;-65
2022/11/23 10:54:32;;;;;;;13.80;12.70;;;;;;;22.21;42.24;93659.22;6233973;28;103547;-65
2022/11/23 10:57:44;;;;;;;14.40;13.30;;;;;;;22.19;42.21;93664.13;6233877;27;103728;-65
2022/11/23 11:00:58;;;;;;;12.90;11.90;;;;;;;22.17;42.07;93671.66;6223361;27;103675;-65
2022/11/23 11:04:03;;;;;;;13.80;12.70;;;;;;;22.18;41.62;93667.09;6234213;27;104029;-65
2022/11/23 11:07:23;;;;;;;13.67;12.57;;;;;;;22.17;41.64;93654.88;6234410;27;103885;-65
2022/11/23 11:10:39;;;;;;;14.70;13.50;;;;;;;22.21;41.78;93658.44;6232594;27;103697;-65
2022/11/23 11:13:44;;;;;;;14.10;12.93;;;;;;;22.21;42.24;93669.09;6223994;27;103861;-65
2022/11/23 11:16:49;;;;;;;14.13;12.93;;;;;;;22.21;42.01;93669.09;6232880;28;103714;-65
2022/11/23 11:19:52;;;;;;;13.40;12.30;;;;;;;22.22;41.52;93654.66;6234507;27;104307;-66
2022/11/23 11:22:58;;;;;;;12.97;11.90;;;;;;;22.24;41.69;93641.78;6228729;28;103845;-65
2022/11/23 11:26:18;;;;;;;13.97;12.90;;;;;;;22.23;41.51;93643.66;6227916;28;103917;-65
2022/11/23 11:29:31;;;;;;;12.77;11.63;;;;;;;22.22;42.00;93630.69;6234214;27;103755;-65
2022/11/23 11:32:50;;;;;;;13.30;12.30;;;;;;;22.22;41.77;93628.00;6233601;27;104374;-65
2022/11/23 11:35:54;;;;;;;12.53;11.53;;;;;;;22.21;41.57;93629.91;6223670;27;103657;-64
2022/11/23 11:39:02;;;;;;;12.07;11.17;;;;;;;22.22;41.66;93633.34;6233914;27;103746;-65
2022/11/23 11:42:30;;;;;;;12.50;11.50;;;;;;;22.20;41.79;93630.25;6234119;28;104708;-64
2022/11/23 11:45:38;;;;;;;12.40;11.40;;;;;;;22.18;41.81;93633.25;6228307;27;103838;-65
2022/11/23 11:48:45;;;;;;;12.33;11.33;;;;;;;22.17;41.41;93628.25;6227690;28;103864;-64
2022/11/23 11:51:54;;;;;;;11.60;10.70;;;;;;;22.15;41.26;93633.13;6233152;27;103907;-64
2022/11/23 11:55:05;;;;;;;11.47;10.57;;;;;;;22.14;41.56;93623.59;6233370;27;103678;-64
2022/11/23 11:58:14;;;;;;;11.97;11.07;;;;;;;22.15;41.91;93643.78;6223148;27;103943;-65
2022/11/23 12:01:32;;;;;;;12.07;11.03;;;;;;;22.15;41.63;93644.56;6233668;28;104556;-64
2022/11/23 12:04:41;;;;;;;11.50;10.50;;;;;;;22.09;41.79;93641.38;6234388;27;104991;-66
2022/11/23 12:07:52;;;;;;;11.70;10.80;;;;;;;22.11;41.80;93641.81;6233244;28;104436;-66
2022/11/23 12:10:59;;;;;;;11.50;10.60;;;;;;;22.15;41.69;93643.78;6226848;28;103667;-66
2022/11/23 12:14:06;;;;;;;10.90;10.10;;;;;;;22.16;41.21;93642.69;6233905;27;103699;-65
2022/11/23 12:17:33;;;;;;;11.10;10.10;;;;;;;22.14;42.13;93632.38;6233230;27;103894;-68
2022/11/23 12:20:48;;;;;;;10.73;9.90;;;;;;;22.15;41.96;93636.56;6223618;27;103800;-67
2022/11/23 12:24:01;;;;;;;10.83;9.90;;;;;;;22.14;41.85;93639.59;6232685;28;103770;-67
2022/11/23 12:27:16;;;;;;;9.13;8.33;;;;;;;22.15;42.55;93630.47;6233541;28;103723;-66
2022/11/23 12:30:25;;;;;;;9.80;9.00;;;;;;;22.16;42.33;93632.03;6232983;28;104230;-67
2022/11/23 12:33:50;;;;;;;10.47;9.67;;;;;;;22.12;42.47;93626.59;6222685;27;103728;-67
2022/11/23 12:37:21;;;;;;;9.33;8.63;;;;;;;22.15;42.29;93625.16;6232888;27;103318;-67
2022/11/23 12:40:55;;;;;;;8.50;7.90;;;;;;;22.13;42.23;93619.38;6232747;27;104649;-67
2022/11/23 12:44:14;;;;;;;8.90;8.13;;;;;;;22.10;42.03;93613.63;6221652;27;104182;-66
2022/11/23 12:47:30;;;;;;;9.37;8.60;;;;;;;22.13;42.23;93616.72;6232705;28;103928;-65
2022/11/23 12:50:40;;;;;;;9.23;8.43;;;;;;;22.16;42.16;93616.03;6233433;28;104445;-66
2022/11/23 12:53:54;;;;;;;9.13;8.43;;;;;;;22.16;41.78;93616.03;6225555;28;103871;-66
2022/11/23 12:57:07;;;;;;;9.00;8.30;;;;;;;22.15;41.46;93617.16;6232136;27;103791;-65
2022/11/23 13:00:15;;;;;;;9.30;8.50;;;;;;;22.17;41.96;93617.59;6232259;27;103745;-65
2022/11/23 13:03:41;;;;;;;8.97;8.27;;;;;;;22.15;41.56;93619.81;6232992;28;103435;-66
2022/11/23 13:07:14;;;;;;;7.80;7.20;;;;;;;22.14;41.54;93621.72;6218935;28;103735;-65
2022/11/23 13:10:53;;;;;;;8.33;7.63;;;;;;;22.14;42.00;93613.72;6229514;28;103414;-65
2022/11/23 13:14:07;;;;;;;8.70;8.00;;;;;;;22.15;41.37;93619.81;6232819;28;103383;-66
2022/11/23 13:17:25;;;;;;;7.60;7.00;;;;;;;22.13;41.44;93622.06;6222416;27;103879;-65
2022/11/23 13:20:49;;;;;;;7.87;7.17;;;;;;;22.14;41.40;93623.59;6232791;28;103813;-65
2022/11/23 13:23:53;;;;;;;7.67;7.07;;;;;;;22.15;41.48;93620.59;6230994;27;103869;-65
2022/11/23 13:27:30;;;;;;;7.30;6.70;;;;;;;22.14;41.53;93623.59;6231595;28;103221;-66
2022/11/23 13:30:36;;;;;;;8.33;7.73;;;;;;;22.13;41.22;93632.72;6226091;27;103619;-65
2022/11/23 13:34:01;;;;;;;7.37;6.87;;;;;;;22.11;41.56;93641.81;6232002;28;103510;-66
2022/11/23 13:37:05;;;;;;;7.60;7.00;;;;;;;22.12;41.65;93647.91;6231959;28;104832;-65
2022/11/23 13:40:22;;;;;;;6.50;6.00;;;;;;;22.09;41.20;93644.03;6220956;28;107399;-66
2022/11/23 13:43:28;;;;;;;7.60;6.90;;;;;;;22.08;41.62;93645.16;6232482;28;104981;-65
2022/11/23 13:46:38;;;;;;;6.83;6.33;;;;;;;22.09;41.13;93654.69;6231907;27;103715;-64
2022/11/23 13:49:43;;;;;;;6.73;6.23;;;;;;;22.08;41.35;93661.16;6233003;27;104902;-64
2022/11/23 13:52:51;;;;;;;6.93;6.33;;;;;;;22.09;41.12;93661.94;6221002;28;103706;-65
2022/11/23 13:55:57;;;;;;;6.57;5.97;;;;;;;22.08;41.86;93669.13;6233579;27;104861;-64
2022/11/23 13:59:29;;;;;;;6.47;6.00;;;;;;;22.10;41.07;93677.56;6234628;27;103697;-64
2022/11/23 14:02:32;;;;;;;7.00;6.50;;;;;;;22.09;41.55;93677.91;6225860;27;104827;-64
2022/11/23 14:05:56;;;;;;;7.03;6.53;;;;;;;22.09;41.17;93680.56;6236427;27;103630;-64
2022/11/23 14:09:04;;;;;;;6.60;6.10;;;;;;;22.07;41.14;93680.91;6236645;27;103110;-64
2022/11/23 14:12:17;;;;;;;6.20;5.70;;;;;;;22.05;41.23;93683.16;6236093;28;103843;-64
2022/11/23 14:15:23;;;;;;;6.53;6.03;;;;;;;22.07;41.38;93677.47;6224674;27;104683;-63
2022/11/23 14:18:41;;;;;;;6.60;6.10;;;;;;;22.05;41.21;93677.81;6236141;27;103919;-65